sensor_id;sensor_type;location;lat;lon;timestamp;P1;durP1;ratioP1;P2;durP2;ratioP2
66585;SDS011;53444;45.822;16.092;2023-02-02T00:00:43;51.10;;;23.10;;
66585;SDS011;53444;45.822;16.092;2023-02-02T00:03:10;50.70;;;25.30;;
66585;SDS011;53444;45.822;16.092;2023-02-02T00:05:37;54.80;;;25.13;;
66585;SDS011;53444;45.822;16.092;2023-02-02T00:08:03;57.95;;;25.42;;
66585;SDS011;53444;45.822;16.092;2023-02-02T00:10:31;54.30;;;24.52;;
66585;SDS011;53444;45.822;16.092;2023-02-02T00:12:58;56.33;;;25.38;;
66585;SDS011;53444;45.822;16.092;2023-02-02T00:15:25;60.57;;;24.57;;
66585;SDS011;53444;45.822;16.092;2023-02-02T00:17:51;59.13;;;23.20;;
66585;SDS011;53444;45.822;16.092;2023-02-02T00:20:18;56.10;;;23.67;;
66585;SDS011;53444;45.822;16.092;2023-02-02T00:22:46;54.35;;;24.00;;
66585;SDS011;53444;45.822;16.092;2023-02-02T00:25:12;50.92;;;23.00;;
66585;SDS011;53444;45.822;16.092;2023-02-02T00:27:40;50.60;;;23.93;;
66585;SDS011;53444;45.822;16.092;2023-02-02T00:30:07;49.83;;;22.05;;
66585;SDS011;53444;45.822;16.092;2023-02-02T00:32:35;50.05;;;23.10;;
66585;SDS011;53444;45.822;16.092;2023-02-02T00:35:01;47.40;;;21.58;;
66585;SDS011;53444;45.822;16.092;2023-02-02T00:37:28;47.65;;;20.58;;
66585;SDS011;53444;45.822;16.092;2023-02-02T00:39:54;56.30;;;23.80;;
66585;SDS011;53444;45.822;16.092;2023-02-02T00:42:21;47.25;;;21.73;;
66585;SDS011;53444;45.822;16.092;2023-02-02T00:44:49;40.85;;;20.15;;
66585;SDS011;53444;45.822;16.092;2023-02-02T00:47:33;56.15;;;25.42;;
66585;SDS011;53444;45.822;16.092;2023-02-02T00:50:00;50.78;;;24.73;;
66585;SDS011;53444;45.822;16.092;2023-02-02T00:52:26;60.97;;;23.83;;
66585;SDS011;53444;45.822;16.092;2023-02-02T00:54:53;51.53;;;22.55;;
66585;SDS011;53444;45.822;16.092;2023-02-02T00:57:19;44.15;;;19.92;;
66585;SDS011;53444;45.822;16.092;2023-02-02T00:59:46;35.15;;;18.40;;
66585;SDS011;53444;45.822;16.092;2023-02-02T01:02:14;42.67;;;17.48;;
66585;SDS011;53444;45.822;16.092;2023-02-02T01:04:40;40.67;;;18.23;;
66585;SDS011;53444;45.822;16.092;2023-02-02T01:07:07;43.75;;;18.63;;
66585;SDS011;53444;45.822;16.092;2023-02-02T01:09:34;39.42;;;18.42;;
66585;SDS011;53444;45.822;16.092;2023-02-02T01:12:00;40.78;;;18.48;;
66585;SDS011;53444;45.822;16.092;2023-02-02T01:14:27;42.20;;;18.70;;
66585;SDS011;53444;45.822;16.092;2023-02-02T01:16:53;37.60;;;18.30;;
66585;SDS011;53444;45.822;16.092;2023-02-02T01:19:21;44.13;;;19.88;;
66585;SDS011;53444;45.822;16.092;2023-02-02T01:21:48;48.13;;;19.08;;
66585;SDS011;53444;45.822;16.092;2023-02-02T01:24:15;43.90;;;18.77;;
66585;SDS011;53444;45.822;16.092;2023-02-02T01:26:41;42.53;;;19.65;;
66585;SDS011;53444;45.822;16.092;2023-02-02T01:29:08;43.20;;;19.80;;
66585;SDS011;53444;45.822;16.092;2023-02-02T01:31:35;31.65;;;16.17;;
66585;SDS011;53444;45.822;16.092;2023-02-02T01:34:01;44.85;;;19.67;;
66585;SDS011;53444;45.822;16.092;2023-02-02T01:36:29;47.40;;;20.08;;
66585;SDS011;53444;45.822;16.092;2023-02-02T01:38:56;49.67;;;21.23;;
66585;SDS011;53444;45.822;16.092;2023-02-02T01:41:23;52.47;;;22.90;;
66585;SDS011;53444;45.822;16.092;2023-02-02T01:43:55;47.78;;;21.73;;
66585;SDS011;53444;45.822;16.092;2023-02-02T01:46:24;43.38;;;21.13;;
66585;SDS011;53444;45.822;16.092;2023-02-02T01:48:54;64.75;;;24.42;;
66585;SDS011;53444;45.822;16.092;2023-02-02T01:51:26;48.72;;;21.52;;
66585;SDS011;53444;45.822;16.092;2023-02-02T01:53:58;52.30;;;21.73;;
66585;SDS011;53444;45.822;16.092;2023-02-02T01:56:27;45.60;;;19.88;;
66585;SDS011;53444;45.822;16.092;2023-02-02T01:59:00;40.15;;;18.77;;
66585;SDS011;53444;45.822;16.092;2023-02-02T02:01:28;54.70;;;22.75;;
66585;SDS011;53444;45.822;16.092;2023-02-02T02:03:55;45.65;;;21.50;;
66585;SDS011;53444;45.822;16.092;2023-02-02T02:06:22;46.93;;;21.33;;
66585;SDS011;53444;45.822;16.092;2023-02-02T02:08:52;57.88;;;23.05;;
66585;SDS011;53444;45.822;16.092;2023-02-02T02:11:22;57.83;;;21.75;;
66585;SDS011;53444;45.822;16.092;2023-02-02T02:13:49;49.15;;;23.15;;
66585;SDS011;53444;45.822;16.092;2023-02-02T02:16:43;47.30;;;21.33;;
66585;SDS011;53444;45.822;16.092;2023-02-02T02:19:24;47.27;;;21.70;;
66585;SDS011;53444;45.822;16.092;2023-02-02T02:22:51;41.85;;;19.98;;
66585;SDS011;53444;45.822;16.092;2023-02-02T02:25:55;41.97;;;20.92;;
66585;SDS011;53444;45.822;16.092;2023-02-02T02:29:02;46.35;;;19.95;;
66585;SDS011;53444;45.822;16.092;2023-02-02T02:34:34;54.80;;;22.93;;
66585;SDS011;53444;45.822;16.092;2023-02-02T02:37:10;53.67;;;22.85;;
66585;SDS011;53444;45.822;16.092;2023-02-02T02:39:42;42.15;;;17.73;;
66585;SDS011;53444;45.822;16.092;2023-02-02T02:42:13;48.83;;;22.20;;
66585;SDS011;53444;45.822;16.092;2023-02-02T02:44:44;41.60;;;19.52;;
66585;SDS011;53444;45.822;16.092;2023-02-02T02:47:13;48.40;;;19.83;;
66585;SDS011;53444;45.822;16.092;2023-02-02T02:49:41;39.05;;;18.75;;
66585;SDS011;53444;45.822;16.092;2023-02-02T02:52:08;45.17;;;17.48;;
66585;SDS011;53444;45.822;16.092;2023-02-02T02:54:36;35.35;;;18.63;;
66585;SDS011;53444;45.822;16.092;2023-02-02T02:57:12;44.90;;;20.17;;
66585;SDS011;53444;45.822;16.092;2023-02-02T02:59:47;38.13;;;19.60;;
66585;SDS011;53444;45.822;16.092;2023-02-02T03:02:34;40.53;;;20.58;;
66585;SDS011;53444;45.822;16.092;2023-02-02T03:05:10;40.70;;;19.30;;
66585;SDS011;53444;45.822;16.092;2023-02-02T03:07:46;35.95;;;18.90;;
66585;SDS011;53444;45.822;16.092;2023-02-02T03:10:16;39.42;;;19.38;;
66585;SDS011;53444;45.822;16.092;2023-02-02T03:12:46;45.73;;;19.93;;
66585;SDS011;53444;45.822;16.092;2023-02-02T03:15:14;43.08;;;19.95;;
66585;SDS011;53444;45.822;16.092;2023-02-02T03:17:42;46.28;;;20.63;;
66585;SDS011;53444;45.822;16.092;2023-02-02T03:20:11;41.40;;;19.42;;
66585;SDS011;53444;45.822;16.092;2023-02-02T03:22:37;42.75;;;19.75;;
66585;SDS011;53444;45.822;16.092;2023-02-02T03:25:05;40.50;;;20.70;;
66585;SDS011;53444;45.822;16.092;2023-02-02T03:27:35;47.92;;;20.45;;
66585;SDS011;53444;45.822;16.092;2023-02-02T03:30:02;47.83;;;19.73;;
66585;SDS011;53444;45.822;16.092;2023-02-02T03:32:29;47.75;;;19.90;;
66585;SDS011;53444;45.822;16.092;2023-02-02T03:34:57;45.47;;;19.75;;
66585;SDS011;53444;45.822;16.092;2023-02-02T03:37:24;44.43;;;20.33;;
66585;SDS011;53444;45.822;16.092;2023-02-02T03:39:51;47.72;;;23.33;;
66585;SDS011;53444;45.822;16.092;2023-02-02T03:42:18;49.25;;;21.58;;
66585;SDS011;53444;45.822;16.092;2023-02-02T03:44:44;46.05;;;21.38;;
66585;SDS011;53444;45.822;16.092;2023-02-02T03:47:11;47.10;;;20.75;;
66585;SDS011;53444;45.822;16.092;2023-02-02T03:49:37;42.77;;;21.23;;
66585;SDS011;53444;45.822;16.092;2023-02-02T03:52:05;52.83;;;21.15;;
66585;SDS011;53444;45.822;16.092;2023-02-02T03:54:32;47.08;;;20.55;;
66585;SDS011;53444;45.822;16.092;2023-02-02T03:56:59;48.58;;;20.02;;
66585;SDS011;53444;45.822;16.092;2023-02-02T03:59:25;49.00;;;20.27;;
66585;SDS011;53444;45.822;16.092;2023-02-02T04:01:52;49.07;;;21.03;;
66585;SDS011;53444;45.822;16.092;2023-02-02T04:04:19;38.50;;;19.05;;
66585;SDS011;53444;45.822;16.092;2023-02-02T04:06:45;49.58;;;21.88;;
66585;SDS011;53444;45.822;16.092;2023-02-02T04:09:13;50.80;;;20.55;;
66585;SDS011;53444;45.822;16.092;2023-02-02T04:11:39;52.78;;;22.08;;
66585;SDS011;53444;45.822;16.092;2023-02-02T04:14:06;44.30;;;19.33;;
66585;SDS011;53444;45.822;16.092;2023-02-02T04:16:33;45.55;;;21.25;;
66585;SDS011;53444;45.822;16.092;2023-02-02T04:19:01;49.45;;;22.17;;
66585;SDS011;53444;45.822;16.092;2023-02-02T04:21:28;43.38;;;21.00;;
66585;SDS011;53444;45.822;16.092;2023-02-02T04:23:54;46.40;;;22.35;;
66585;SDS011;53444;45.822;16.092;2023-02-02T04:26:22;57.60;;;22.17;;
66585;SDS011;53444;45.822;16.092;2023-02-02T04:28:50;46.78;;;20.98;;
66585;SDS011;53444;45.822;16.092;2023-02-02T04:31:17;45.78;;;20.88;;
66585;SDS011;53444;45.822;16.092;2023-02-02T04:33:43;53.40;;;22.83;;
66585;SDS011;53444;45.822;16.092;2023-02-02T04:36:10;47.72;;;21.27;;
66585;SDS011;53444;45.822;16.092;2023-02-02T04:38:37;45.73;;;19.97;;
66585;SDS011;53444;45.822;16.092;2023-02-02T04:41:05;43.90;;;19.58;;
66585;SDS011;53444;45.822;16.092;2023-02-02T04:43:33;50.55;;;20.63;;
66585;SDS011;53444;45.822;16.092;2023-02-02T04:46:00;46.30;;;20.73;;
66585;SDS011;53444;45.822;16.092;2023-02-02T04:48:27;41.60;;;20.55;;
66585;SDS011;53444;45.822;16.092;2023-02-02T04:50:57;45.10;;;21.63;;
66585;SDS011;53444;45.822;16.092;2023-02-02T04:53:23;49.45;;;20.92;;
66585;SDS011;53444;45.822;16.092;2023-02-02T04:55:50;49.15;;;21.70;;
66585;SDS011;53444;45.822;16.092;2023-02-02T04:58:16;54.00;;;21.63;;
66585;SDS011;53444;45.822;16.092;2023-02-02T05:00:45;51.15;;;21.63;;
66585;SDS011;53444;45.822;16.092;2023-02-02T05:03:11;46.87;;;22.23;;
66585;SDS011;53444;45.822;16.092;2023-02-02T05:05:38;46.72;;;21.75;;
66585;SDS011;53444;45.822;16.092;2023-02-02T05:08:04;56.47;;;22.20;;
66585;SDS011;53444;45.822;16.092;2023-02-02T05:10:32;55.00;;;23.90;;
66585;SDS011;53444;45.822;16.092;2023-02-02T05:12:59;46.85;;;19.88;;
66585;SDS011;53444;45.822;16.092;2023-02-02T05:15:25;48.80;;;21.33;;
66585;SDS011;53444;45.822;16.092;2023-02-02T05:17:53;42.72;;;20.45;;
66585;SDS011;53444;45.822;16.092;2023-02-02T05:20:20;46.72;;;18.50;;
66585;SDS011;53444;45.822;16.092;2023-02-02T05:22:47;50.05;;;21.48;;
66585;SDS011;53444;45.822;16.092;2023-02-02T05:25:14;48.25;;;19.83;;
66585;SDS011;53444;45.822;16.092;2023-02-02T05:27:41;47.87;;;22.07;;
66585;SDS011;53444;45.822;16.092;2023-02-02T05:30:08;49.38;;;20.52;;
66585;SDS011;53444;45.822;16.092;2023-02-02T05:32:36;46.95;;;19.77;;
66585;SDS011;53444;45.822;16.092;2023-02-02T05:35:05;49.35;;;21.05;;
66585;SDS011;53444;45.822;16.092;2023-02-02T05:37:32;48.10;;;18.80;;
66585;SDS011;53444;45.822;16.092;2023-02-02T05:39:59;43.47;;;17.47;;
66585;SDS011;53444;45.822;16.092;2023-02-02T05:42:25;41.00;;;17.95;;
66585;SDS011;53444;45.822;16.092;2023-02-02T05:44:52;37.22;;;18.65;;
66585;SDS011;53444;45.822;16.092;2023-02-02T05:47:19;39.05;;;18.50;;
66585;SDS011;53444;45.822;16.092;2023-02-02T05:49:48;37.65;;;17.40;;
66585;SDS011;53444;45.822;16.092;2023-02-02T05:52:20;38.53;;;17.00;;
66585;SDS011;53444;45.822;16.092;2023-02-02T05:54:48;43.33;;;18.08;;
66585;SDS011;53444;45.822;16.092;2023-02-02T05:57:16;37.40;;;16.25;;
66585;SDS011;53444;45.822;16.092;2023-02-02T05:59:43;42.25;;;17.13;;
66585;SDS011;53444;45.822;16.092;2023-02-02T06:02:12;40.40;;;18.95;;
66585;SDS011;53444;45.822;16.092;2023-02-02T06:04:41;30.33;;;16.23;;
66585;SDS011;53444;45.822;16.092;2023-02-02T06:07:08;40.03;;;17.90;;
66585;SDS011;53444;45.822;16.092;2023-02-02T06:09:37;39.40;;;17.70;;
66585;SDS011;53444;45.822;16.092;2023-02-02T06:12:03;40.20;;;18.65;;
66585;SDS011;53444;45.822;16.092;2023-02-02T06:14:31;41.72;;;18.58;;
66585;SDS011;53444;45.822;16.092;2023-02-02T06:16:58;40.97;;;18.80;;
66585;SDS011;53444;45.822;16.092;2023-02-02T06:19:29;38.25;;;16.48;;
66585;SDS011;53444;45.822;16.092;2023-02-02T06:21:56;44.67;;;20.63;;
66585;SDS011;53444;45.822;16.092;2023-02-02T06:24:26;47.20;;;18.90;;
66585;SDS011;53444;45.822;16.092;2023-02-02T06:26:56;42.90;;;18.27;;
66585;SDS011;53444;45.822;16.092;2023-02-02T06:29:23;36.67;;;17.67;;
66585;SDS011;53444;45.822;16.092;2023-02-02T06:31:50;47.17;;;19.10;;
66585;SDS011;53444;45.822;16.092;2023-02-02T06:34:16;40.40;;;18.70;;
66585;SDS011;53444;45.822;16.092;2023-02-02T06:36:43;37.25;;;17.15;;
66585;SDS011;53444;45.822;16.092;2023-02-02T06:39:10;41.95;;;17.45;;
66585;SDS011;53444;45.822;16.092;2023-02-02T06:41:36;41.93;;;19.70;;
66585;SDS011;53444;45.822;16.092;2023-02-02T06:44:06;35.42;;;18.13;;
66585;SDS011;53444;45.822;16.092;2023-02-02T06:46:32;48.13;;;19.98;;
66585;SDS011;53444;45.822;16.092;2023-02-02T06:48:59;51.80;;;21.10;;
66585;SDS011;53444;45.822;16.092;2023-02-02T06:51:26;38.10;;;20.30;;
66585;SDS011;53444;45.822;16.092;2023-02-02T06:53:52;54.60;;;22.23;;
66585;SDS011;53444;45.822;16.092;2023-02-02T06:56:19;50.97;;;22.80;;
66585;SDS011;53444;45.822;16.092;2023-02-02T06:58:53;52.28;;;22.75;;
66585;SDS011;53444;45.822;16.092;2023-02-02T07:01:55;40.55;;;18.65;;
66585;SDS011;53444;45.822;16.092;2023-02-02T07:04:22;46.50;;;20.13;;
66585;SDS011;53444;45.822;16.092;2023-02-02T07:06:48;42.90;;;21.17;;
66585;SDS011;53444;45.822;16.092;2023-02-02T07:09:15;43.60;;;20.92;;
66585;SDS011;53444;45.822;16.092;2023-02-02T07:11:41;45.20;;;22.27;;
66585;SDS011;53444;45.822;16.092;2023-02-02T07:14:10;55.22;;;25.33;;
66585;SDS011;53444;45.822;16.092;2023-02-02T07:16:37;50.00;;;23.95;;
66585;SDS011;53444;45.822;16.092;2023-02-02T07:19:03;54.53;;;24.40;;
66585;SDS011;53444;45.822;16.092;2023-02-02T07:21:30;55.25;;;24.77;;
66585;SDS011;53444;45.822;16.092;2023-02-02T07:23:59;44.55;;;22.40;;
66585;SDS011;53444;45.822;16.092;2023-02-02T07:26:26;43.80;;;22.90;;
66585;SDS011;53444;45.822;16.092;2023-02-02T07:28:53;54.95;;;25.00;;
66585;SDS011;53444;45.822;16.092;2023-02-02T07:31:22;54.27;;;23.87;;
66585;SDS011;53444;45.822;16.092;2023-02-02T07:33:50;50.45;;;23.52;;
66585;SDS011;53444;45.822;16.092;2023-02-02T07:36:17;46.85;;;22.05;;
66585;SDS011;53444;45.822;16.092;2023-02-02T07:38:45;51.75;;;24.50;;
66585;SDS011;53444;45.822;16.092;2023-02-02T07:41:14;48.13;;;23.83;;
66585;SDS011;53444;45.822;16.092;2023-02-02T07:43:41;48.77;;;23.53;;
66585;SDS011;53444;45.822;16.092;2023-02-02T07:46:11;51.72;;;23.55;;
66585;SDS011;53444;45.822;16.092;2023-02-02T07:48:39;58.92;;;25.00;;
66585;SDS011;53444;45.822;16.092;2023-02-02T07:51:07;63.10;;;28.23;;
66585;SDS011;53444;45.822;16.092;2023-02-02T07:53:36;64.38;;;26.60;;
66585;SDS011;53444;45.822;16.092;2023-02-02T07:56:06;56.57;;;23.93;;
66585;SDS011;53444;45.822;16.092;2023-02-02T07:58:34;58.13;;;24.77;;
66585;SDS011;53444;45.822;16.092;2023-02-02T08:01:01;57.53;;;25.02;;
66585;SDS011;53444;45.822;16.092;2023-02-02T08:03:28;51.67;;;23.30;;
66585;SDS011;53444;45.822;16.092;2023-02-02T08:05:56;51.45;;;21.90;;
66585;SDS011;53444;45.822;16.092;2023-02-02T08:08:25;45.53;;;21.80;;
66585;SDS011;53444;45.822;16.092;2023-02-02T08:10:52;52.47;;;22.63;;
66585;SDS011;53444;45.822;16.092;2023-02-02T08:13:19;38.75;;;19.58;;
66585;SDS011;53444;45.822;16.092;2023-02-02T08:15:46;40.50;;;20.35;;
66585;SDS011;53444;45.822;16.092;2023-02-02T08:18:13;43.75;;;18.75;;
66585;SDS011;53444;45.822;16.092;2023-02-02T08:20:39;39.97;;;19.00;;
66585;SDS011;53444;45.822;16.092;2023-02-02T08:23:07;33.08;;;17.35;;
66585;SDS011;53444;45.822;16.092;2023-02-02T08:25:39;37.50;;;18.13;;
66585;SDS011;53444;45.822;16.092;2023-02-02T08:28:06;33.95;;;16.42;;
66585;SDS011;53444;45.822;16.092;2023-02-02T08:30:33;37.53;;;17.13;;
66585;SDS011;53444;45.822;16.092;2023-02-02T08:33:00;33.93;;;17.23;;
66585;SDS011;53444;45.822;16.092;2023-02-02T08:35:27;33.38;;;15.55;;
66585;SDS011;53444;45.822;16.092;2023-02-02T08:37:54;30.48;;;13.25;;
66585;SDS011;53444;45.822;16.092;2023-02-02T08:40:22;28.77;;;13.75;;
66585;SDS011;53444;45.822;16.092;2023-02-02T08:42:51;26.42;;;12.10;;
66585;SDS011;53444;45.822;16.092;2023-02-02T08:45:18;21.77;;;10.60;;
66585;SDS011;53444;45.822;16.092;2023-02-02T08:47:45;22.40;;;10.77;;
66585;SDS011;53444;45.822;16.092;2023-02-02T08:50:12;20.42;;;10.23;;
66585;SDS011;53444;45.822;16.092;2023-02-02T08:52:38;19.55;;;9.73;;
66585;SDS011;53444;45.822;16.092;2023-02-02T08:55:05;20.45;;;9.02;;
66585;SDS011;53444;45.822;16.092;2023-02-02T08:57:34;19.43;;;10.30;;
66585;SDS011;53444;45.822;16.092;2023-02-02T09:00:01;22.20;;;10.85;;
66585;SDS011;53444;45.822;16.092;2023-02-02T09:02:28;22.83;;;10.75;;
66585;SDS011;53444;45.822;16.092;2023-02-02T09:04:55;21.80;;;9.90;;
66585;SDS011;53444;45.822;16.092;2023-02-02T09:07:22;17.95;;;8.85;;
66585;SDS011;53444;45.822;16.092;2023-02-02T09:09:49;18.33;;;8.87;;
66585;SDS011;53444;45.822;16.092;2023-02-02T09:12:19;17.27;;;7.65;;
66585;SDS011;53444;45.822;16.092;2023-02-02T09:14:47;17.30;;;7.50;;
66585;SDS011;53444;45.822;16.092;2023-02-02T09:17:14;16.70;;;7.30;;
66585;SDS011;53444;45.822;16.092;2023-02-02T09:19:41;16.02;;;8.32;;
66585;SDS011;53444;45.822;16.092;2023-02-02T09:22:08;22.80;;;8.03;;
66585;SDS011;53444;45.822;16.092;2023-02-02T09:24:34;13.80;;;7.22;;
66585;SDS011;53444;45.822;16.092;2023-02-02T09:27:01;16.05;;;7.63;;
66585;SDS011;53444;45.822;16.092;2023-02-02T09:29:28;16.02;;;7.40;;
66585;SDS011;53444;45.822;16.092;2023-02-02T09:31:56;12.68;;;7.00;;
66585;SDS011;53444;45.822;16.092;2023-02-02T09:34:23;16.30;;;7.30;;
66585;SDS011;53444;45.822;16.092;2023-02-02T09:36:50;14.35;;;6.35;;
66585;SDS011;53444;45.822;16.092;2023-02-02T09:39:18;15.88;;;6.30;;
66585;SDS011;53444;45.822;16.092;2023-02-02T09:41:54;12.73;;;6.35;;
66585;SDS011;53444;45.822;16.092;2023-02-02T09:44:48;15.38;;;7.00;;
66585;SDS011;53444;45.822;16.092;2023-02-02T09:47:36;14.97;;;6.90;;
66585;SDS011;53444;45.822;16.092;2023-02-02T09:50:38;14.77;;;6.78;;
66585;SDS011;53444;45.822;16.092;2023-02-02T09:53:13;12.30;;;6.35;;
66585;SDS011;53444;45.822;16.092;2023-02-02T09:55:46;12.93;;;5.97;;
66585;SDS011;53444;45.822;16.092;2023-02-02T09:58:17;14.45;;;7.00;;
66585;SDS011;53444;45.822;16.092;2023-02-02T10:00:50;13.33;;;6.40;;
66585;SDS011;53444;45.822;16.092;2023-02-02T10:03:23;11.20;;;6.30;;
66585;SDS011;53444;45.822;16.092;2023-02-02T10:06:00;14.38;;;7.22;;
66585;SDS011;53444;45.822;16.092;2023-02-02T10:08:32;14.95;;;6.75;;
66585;SDS011;53444;45.822;16.092;2023-02-02T10:11:04;14.15;;;6.45;;
66585;SDS011;53444;45.822;16.092;2023-02-02T10:13:46;12.57;;;6.47;;
66585;SDS011;53444;45.822;16.092;2023-02-02T10:16:18;15.52;;;6.65;;
66585;SDS011;53444;45.822;16.092;2023-02-02T10:18:54;11.18;;;5.97;;
66585;SDS011;53444;45.822;16.092;2023-02-02T10:21:26;13.88;;;6.07;;
66585;SDS011;53444;45.822;16.092;2023-02-02T10:24:01;13.45;;;6.30;;
66585;SDS011;53444;45.822;16.092;2023-02-02T10:26:30;22.53;;;8.07;;
66585;SDS011;53444;45.822;16.092;2023-02-02T10:29:05;15.18;;;8.05;;
66585;SDS011;53444;45.822;16.092;2023-02-02T10:31:41;27.95;;;11.02;;
66585;SDS011;53444;45.822;16.092;2023-02-02T10:34:15;12.95;;;6.00;;
66585;SDS011;53444;45.822;16.092;2023-02-02T10:36:49;12.68;;;7.50;;
66585;SDS011;53444;45.822;16.092;2023-02-02T10:39:27;13.37;;;6.27;;
66585;SDS011;53444;45.822;16.092;2023-02-02T10:42:10;13.38;;;7.10;;
66585;SDS011;53444;45.822;16.092;2023-02-02T10:44:46;13.30;;;6.45;;
66585;SDS011;53444;45.822;16.092;2023-02-02T10:47:18;11.45;;;6.43;;
66585;SDS011;53444;45.822;16.092;2023-02-02T10:49:54;11.50;;;5.60;;
66585;SDS011;53444;45.822;16.092;2023-02-02T10:52:30;13.87;;;6.23;;
66585;SDS011;53444;45.822;16.092;2023-02-02T10:54:59;12.55;;;6.03;;
66585;SDS011;53444;45.822;16.092;2023-02-02T10:57:42;13.48;;;6.15;;
66585;SDS011;53444;45.822;16.092;2023-02-02T11:00:20;15.82;;;6.22;;
66585;SDS011;53444;45.822;16.092;2023-02-02T11:02:50;12.82;;;5.70;;
66585;SDS011;53444;45.822;16.092;2023-02-02T11:05:20;11.80;;;6.10;;
66585;SDS011;53444;45.822;16.092;2023-02-02T11:08:10;14.07;;;7.55;;
66585;SDS011;53444;45.822;16.092;2023-02-02T11:10:39;16.80;;;7.93;;
66585;SDS011;53444;45.822;16.092;2023-02-02T11:13:06;16.42;;;8.95;;
66585;SDS011;53444;45.822;16.092;2023-02-02T11:15:37;17.90;;;10.32;;
66585;SDS011;53444;45.822;16.092;2023-02-02T11:18:13;27.77;;;13.07;;
66585;SDS011;53444;45.822;16.092;2023-02-02T11:20:54;24.10;;;11.60;;
66585;SDS011;53444;45.822;16.092;2023-02-02T11:23:22;29.15;;;13.45;;
66585;SDS011;53444;45.822;16.092;2023-02-02T11:25:56;21.08;;;10.15;;
66585;SDS011;53444;45.822;16.092;2023-02-02T11:28:25;17.25;;;8.60;;
66585;SDS011;53444;45.822;16.092;2023-02-02T11:30:56;15.57;;;8.73;;
66585;SDS011;53444;45.822;16.092;2023-02-02T11:33:27;15.63;;;7.90;;
66585;SDS011;53444;45.822;16.092;2023-02-02T11:35:58;16.05;;;8.57;;
66585;SDS011;53444;45.822;16.092;2023-02-02T11:38:26;17.25;;;8.77;;
66585;SDS011;53444;45.822;16.092;2023-02-02T11:40:54;12.38;;;6.75;;
66585;SDS011;53444;45.822;16.092;2023-02-02T11:43:25;14.85;;;7.28;;
66585;SDS011;53444;45.822;16.092;2023-02-02T11:45:55;12.70;;;6.97;;
66585;SDS011;53444;45.822;16.092;2023-02-02T11:48:26;15.25;;;8.27;;
66585;SDS011;53444;45.822;16.092;2023-02-02T11:50:57;26.17;;;14.63;;
66585;SDS011;53444;45.822;16.092;2023-02-02T11:53:26;13.15;;;7.57;;
66585;SDS011;53444;45.822;16.092;2023-02-02T11:55:56;12.63;;;6.93;;
66585;SDS011;53444;45.822;16.092;2023-02-02T11:58:27;12.20;;;6.63;;
66585;SDS011;53444;45.822;16.092;2023-02-02T12:00:56;14.10;;;7.25;;
66585;SDS011;53444;45.822;16.092;2023-02-02T12:03:26;11.98;;;6.80;;
66585;SDS011;53444;45.822;16.092;2023-02-02T12:05:57;12.85;;;6.57;;
66585;SDS011;53444;45.822;16.092;2023-02-02T12:08:26;10.18;;;5.80;;
66585;SDS011;53444;45.822;16.092;2023-02-02T12:10:55;7.97;;;4.68;;
66585;SDS011;53444;45.822;16.092;2023-02-02T12:13:39;11.80;;;6.03;;
66585;SDS011;53444;45.822;16.092;2023-02-02T12:16:22;12.15;;;6.63;;
66585;SDS011;53444;45.822;16.092;2023-02-02T12:19:04;31.67;;;14.45;;
66585;SDS011;53444;45.822;16.092;2023-02-02T12:21:48;11.00;;;5.35;;
66585;SDS011;53444;45.822;16.092;2023-02-02T12:24:28;10.32;;;4.90;;
66585;SDS011;53444;45.822;16.092;2023-02-02T12:29:54;10.23;;;4.43;;
66585;SDS011;53444;45.822;16.092;2023-02-02T12:32:39;8.70;;;3.70;;
66585;SDS011;53444;45.822;16.092;2023-02-02T12:35:21;31.80;;;13.43;;
66585;SDS011;53444;45.822;16.092;2023-02-02T12:38:06;63.85;;;22.88;;
66585;SDS011;53444;45.822;16.092;2023-02-02T12:40:45;15.88;;;7.28;;
66585;SDS011;53444;45.822;16.092;2023-02-02T12:43:26;30.02;;;10.13;;
66585;SDS011;53444;45.822;16.092;2023-02-02T12:46:07;48.65;;;18.40;;
66585;SDS011;53444;45.822;16.092;2023-02-02T12:48:48;33.17;;;13.95;;
66585;SDS011;53444;45.822;16.092;2023-02-02T12:51:29;18.92;;;8.25;;
66585;SDS011;53444;45.822;16.092;2023-02-02T12:54:15;16.08;;;7.78;;
66585;SDS011;53444;45.822;16.092;2023-02-02T12:56:50;6.88;;;3.92;;
66585;SDS011;53444;45.822;16.092;2023-02-02T12:59:29;7.60;;;4.35;;
66585;SDS011;53444;45.822;16.092;2023-02-02T13:02:15;5.65;;;4.03;;
66585;SDS011;53444;45.822;16.092;2023-02-02T13:04:53;5.80;;;3.13;;
66585;SDS011;53444;45.822;16.092;2023-02-02T13:07:31;14.93;;;5.78;;
66585;SDS011;53444;45.822;16.092;2023-02-02T13:10:08;9.30;;;4.65;;
66585;SDS011;53444;45.822;16.092;2023-02-02T13:12:41;6.28;;;3.40;;
66585;SDS011;53444;45.822;16.092;2023-02-02T13:15:11;5.47;;;3.05;;
66585;SDS011;53444;45.822;16.092;2023-02-02T13:17:43;5.68;;;3.53;;
66585;SDS011;53444;45.822;16.092;2023-02-02T13:20:17;6.00;;;3.58;;
66585;SDS011;53444;45.822;16.092;2023-02-02T13:22:49;9.13;;;3.25;;
66585;SDS011;53444;45.822;16.092;2023-02-02T13:25:22;9.30;;;5.40;;
66585;SDS011;53444;45.822;16.092;2023-02-02T13:27:52;9.27;;;5.05;;
66585;SDS011;53444;45.822;16.092;2023-02-02T13:30:21;17.00;;;8.45;;
66585;SDS011;53444;45.822;16.092;2023-02-02T13:32:53;12.57;;;6.38;;
66585;SDS011;53444;45.822;16.092;2023-02-02T13:35:26;12.85;;;5.40;;
66585;SDS011;53444;45.822;16.092;2023-02-02T13:38:00;11.85;;;5.68;;
66585;SDS011;53444;45.822;16.092;2023-02-02T13:40:33;15.27;;;6.50;;
66585;SDS011;53444;45.822;16.092;2023-02-02T13:43:04;20.90;;;9.85;;
66585;SDS011;53444;45.822;16.092;2023-02-02T13:45:44;15.23;;;7.47;;
66585;SDS011;53444;45.822;16.092;2023-02-02T13:48:20;13.02;;;6.03;;
66585;SDS011;53444;45.822;16.092;2023-02-02T13:50:58;12.98;;;5.80;;
66585;SDS011;53444;45.822;16.092;2023-02-02T13:53:46;12.52;;;5.72;;
66585;SDS011;53444;45.822;16.092;2023-02-02T13:56:27;6.97;;;3.80;;
66585;SDS011;53444;45.822;16.092;2023-02-02T13:59:04;11.50;;;4.57;;
66585;SDS011;53444;45.822;16.092;2023-02-02T14:01:45;5.78;;;2.90;;
66585;SDS011;53444;45.822;16.092;2023-02-02T14:04:17;24.08;;;12.32;;
66585;SDS011;53444;45.822;16.092;2023-02-02T14:06:50;22.40;;;11.18;;
66585;SDS011;53444;45.822;16.092;2023-02-02T14:09:21;13.95;;;7.55;;
66585;SDS011;53444;45.822;16.092;2023-02-02T14:11:54;12.98;;;7.30;;
66585;SDS011;53444;45.822;16.092;2023-02-02T14:14:23;9.57;;;4.88;;
66585;SDS011;53444;45.822;16.092;2023-02-02T14:17:00;19.35;;;8.48;;
66585;SDS011;53444;45.822;16.092;2023-02-02T14:19:49;71.55;;;30.95;;
66585;SDS011;53444;45.822;16.092;2023-02-02T14:28:17;6.43;;;3.95;;
66585;SDS011;53444;45.822;16.092;2023-02-02T14:31:15;18.95;;;8.70;;
66585;SDS011;53444;45.822;16.092;2023-02-02T14:36:55;10.32;;;4.72;;
66585;SDS011;53444;45.822;16.092;2023-02-02T14:39:28;6.32;;;2.90;;
66585;SDS011;53444;45.822;16.092;2023-02-02T14:41:58;4.57;;;2.58;;
66585;SDS011;53444;45.822;16.092;2023-02-02T14:45:15;11.15;;;4.07;;
66585;SDS011;53444;45.822;16.092;2023-02-02T14:47:51;19.02;;;7.05;;
66585;SDS011;53444;45.822;16.092;2023-02-02T14:50:22;18.92;;;7.90;;